createdAt,value
2017-06-26T00:00:43.547Z,99.99
2017-06-26T00:01:52.487Z,99.99
2017-06-26T00:03:01.669Z,99.99
2017-06-26T00:04:10.607Z,99.99
2017-06-26T00:05:19.543Z,99.99
2017-06-26T00:06:28.485Z,99.99
2017-06-26T00:07:37.425Z,99.99
2017-06-26T00:08:46.618Z,99.99
2017-06-26T00:09:55.554Z,99.99
2017-06-26T00:11:04.492Z,99.99
2017-06-26T00:12:13.435Z,99.99
2017-06-26T00:13:22.388Z,99.99
2017-06-26T00:14:31.947Z,99.99
2017-06-26T00:15:40.887Z,99.99
2017-06-26T00:16:49.829Z,99.99
2017-06-26T00:17:58.769Z,99.99
2017-06-26T00:19:07.795Z,99.99
2017-06-26T00:20:16.980Z,99.99
2017-06-26T00:21:25.926Z,99.99
2017-06-26T00:22:34.883Z,99.99
2017-06-26T00:23:44.145Z,99.99
2017-06-26T00:24:53.083Z,99.99
2017-06-26T00:26:02.330Z,99.99
2017-06-26T00:27:11.266Z,99.99
2017-06-26T00:28:20.204Z,99.99
2017-06-26T00:29:29.145Z,99.99
2017-06-26T00:30:38.080Z,99.99
2017-06-26T00:31:47.314Z,99.99
2017-06-26T00:32:56.256Z,99.99
2017-06-26T00:34:05.278Z,99.99
2017-06-26T00:35:14.215Z,99.99
2017-06-26T00:36:23.151Z,99.99
2017-06-26T00:37:32.341Z,99.99
2017-06-26T00:38:41.278Z,99.99
2017-06-26T00:39:50.215Z,99.99
2017-06-26T00:40:59.151Z,99.99
2017-06-26T00:42:08.086Z,99.99
2017-06-26T00:43:17.275Z,99.99
2017-06-26T00:44:26.542Z,99.99
2017-06-26T00:45:35.479Z,99.99
2017-06-26T00:46:44.500Z,99.99
2017-06-26T00:47:53.446Z,99.99
2017-06-26T00:49:02.634Z,99.99
2017-06-26T00:50:11.577Z,99.99
2017-06-26T00:51:20.519Z,99.99
2017-06-26T00:52:29.495Z,99.99
2017-06-26T00:53:38.435Z,99.99
2017-06-26T00:54:47.625Z,99.99
2017-06-26T00:55:56.561Z,99.99
2017-06-26T00:57:05.503Z,99.99
2017-06-26T00:58:14.441Z,99.99
2017-06-26T00:59:23.376Z,99.99
2017-06-26T01:00:32.649Z,99.99
2017-06-26T01:01:41.927Z,99.99
2017-06-26T01:02:50.869Z,99.99
2017-06-26T01:03:59.803Z,99.99
2017-06-26T01:05:08.741Z,99.99
2017-06-26T01:06:18.004Z,99.99
2017-06-26T01:07:26.938Z,99.99
2017-06-26T01:08:35.874Z,99.99
2017-06-26T01:09:44.818Z,99.99
2017-06-26T01:10:53.755Z,99.99
2017-06-26T01:12:03.000Z,99.99
2017-06-26T01:13:11.937Z,99.99
2017-06-26T01:14:20.963Z,99.99
2017-06-26T01:15:29.901Z,99.99
2017-06-26T01:16:38.837Z,99.99
2017-06-26T01:17:48.026Z,99.99
2017-06-26T01:18:57.130Z,99.99
2017-06-26T01:20:06.154Z,99.99
2017-06-26T01:21:15.093Z,99.99
2017-06-26T01:22:24.031Z,99.99
2017-06-26T01:23:33.217Z,99.99
2017-06-26T01:24:42.160Z,99.99
2017-06-26T01:25:51.096Z,99.99
2017-06-26T01:27:00.032Z,99.99
2017-06-26T01:28:08.969Z,99.99
2017-06-26T01:29:18.182Z,99.99
2017-06-26T01:30:27.121Z,99.99
2017-06-26T01:31:36.061Z,99.99
2017-06-26T01:32:45.003Z,99.99
2017-06-26T01:33:53.943Z,99.99
2017-06-26T01:35:03.185Z,99.99
2017-06-26T01:36:12.124Z,99.99
2017-06-26T01:37:21.144Z,99.99
2017-06-26T01:38:30.086Z,99.99
2017-06-26T01:39:39.022Z,99.99
2017-06-26T01:40:48.261Z,99.99
2017-06-26T01:41:57.524Z,99.99
2017-06-26T01:43:06.462Z,99.99
2017-06-26T01:44:15.396Z,99.99
2017-06-26T01:45:24.337Z,99.99
2017-06-26T01:46:33.526Z,99.99
2017-06-26T01:47:42.466Z,99.99
2017-06-26T01:48:51.402Z,99.99
2017-06-26T01:50:00.338Z,99.99
2017-06-26T01:51:09.277Z,99.99
2017-06-26T01:52:18.848Z,99.99
2017-06-26T01:53:27.794Z,99.99
2017-06-26T01:54:37.059Z,99.99
2017-06-26T01:55:45.999Z,99.99
2017-06-26T01:56:54.946Z,99.99
2017-06-26T01:58:04.475Z,99.99
2017-06-26T01:59:13.421Z,99.99
2017-06-26T02:00:22.353Z,99.99
2017-06-26T02:01:31.288Z,99.99
2017-06-26T02:02:40.225Z,99.99
2017-06-26T02:03:49.463Z,99.99
2017-06-26T02:04:58.403Z,99.99
2017-06-26T02:06:07.669Z,99.99
2017-06-26T02:07:16.603Z,99.99
2017-06-26T02:08:25.540Z,99.99
2017-06-26T02:09:34.779Z,99.99
2017-06-26T02:10:43.717Z,99.99
2017-06-26T02:11:52.657Z,99.99
2017-06-26T02:13:01.591Z,99.99
2017-06-26T02:14:10.532Z,99.99
2017-06-26T02:15:19.771Z,99.99
2017-06-26T02:16:28.714Z,99.99
2017-06-26T02:17:37.651Z,99.99
2017-06-26T02:18:46.588Z,99.99
2017-06-26T02:19:55.527Z,99.99
2017-06-26T02:21:04.764Z,99.99
2017-06-26T02:22:13.736Z,99.99
2017-06-26T02:23:22.673Z,99.99
2017-06-26T02:24:31.609Z,99.99
2017-06-26T02:25:40.634Z,99.99
2017-06-26T02:26:49.820Z,99.99
2017-06-26T02:27:58.761Z,99.99
2017-06-26T02:29:07.710Z,99.99
2017-06-26T02:30:16.646Z,99.99
2017-06-26T02:31:25.588Z,99.99
2017-06-26T02:32:34.829Z,99.99
2017-06-26T02:33:43.851Z,99.99
2017-06-26T02:34:52.791Z,99.99
2017-06-26T02:36:01.731Z,99.99
2017-06-26T02:37:10.672Z,99.99
2017-06-26T02:38:19.864Z,99.99
2017-06-26T02:39:28.805Z,99.99
2017-06-26T02:40:37.749Z,99.99
2017-06-26T02:41:46.686Z,99.99
2017-06-26T02:42:55.625Z,99.99
2017-06-26T02:44:04.870Z,99.99
2017-06-26T02:45:13.812Z,99.99
2017-06-26T02:46:22.752Z,99.99
2017-06-26T02:47:31.694Z,99.99
2017-06-26T02:48:40.632Z,99.99
2017-06-26T02:49:49.818Z,99.99
2017-06-26T02:50:58.765Z,99.99
2017-06-26T02:52:07.707Z,99.99
2017-06-26T02:53:16.643Z,99.99
2017-06-26T02:54:25.578Z,99.99
2017-06-26T02:55:34.816Z,99.99
2017-06-26T02:56:43.756Z,99.99
2017-06-26T02:57:52.699Z,99.99
2017-06-26T02:59:01.968Z,99.99
2017-06-26T03:00:10.910Z,99.99
2017-06-26T03:01:20.148Z,99.99
2017-06-26T03:02:29.087Z,99.99
2017-06-26T03:03:38.021Z,99.99
2017-06-26T03:04:46.958Z,99.99
2017-06-26T03:05:55.984Z,99.99
2017-06-26T03:07:05.229Z,99.99
2017-06-26T03:08:14.488Z,99.99
2017-06-26T03:09:23.425Z,99.99
2017-06-26T03:10:32.693Z,99.99
2017-06-26T03:11:41.633Z,99.99
2017-06-26T03:12:50.821Z,99.99
2017-06-26T03:13:59.760Z,99.99
2017-06-26T03:15:08.698Z,99.99
2017-06-26T03:16:17.641Z,99.99
2017-06-26T03:17:26.580Z,99.99
2017-06-26T03:18:35.818Z,99.99
2017-06-26T03:19:44.756Z,99.99
2017-06-26T03:20:53.697Z,99.99
2017-06-26T03:22:02.639Z,99.99
2017-06-26T03:23:11.579Z,99.99
2017-06-26T03:24:20.858Z,99.99
2017-06-26T03:25:29.797Z,99.99
2017-06-26T03:26:38.737Z,99.99
2017-06-26T03:27:47.676Z,99.99
2017-06-26T03:28:56.611Z,99.99
2017-06-26T03:30:05.844Z,99.99
2017-06-26T03:31:14.785Z,99.99
2017-06-26T03:32:23.738Z,99.99
2017-06-26T03:33:32.680Z,99.99
2017-06-26T03:34:41.617Z,99.99
2017-06-26T03:35:50.810Z,99.99
2017-06-26T03:36:59.744Z,99.99
2017-06-26T03:38:09.002Z,99.99
2017-06-26T03:39:17.945Z,99.99
2017-06-26T03:40:26.889Z,99.99
2017-06-26T03:41:36.132Z,99.99
2017-06-26T03:42:45.068Z,99.99
2017-06-26T03:43:54.009Z,99.99
2017-06-26T03:45:02.965Z,99.99
2017-06-26T03:46:12.221Z,99.99
2017-06-26T03:47:21.408Z,99.99
2017-06-26T03:48:30.351Z,99.99
2017-06-26T03:49:39.289Z,99.99
2017-06-26T03:50:48.226Z,99.99
2017-06-26T03:51:57.166Z,99.99
2017-06-26T03:53:06.360Z,99.99
2017-06-26T03:54:15.299Z,99.99
2017-06-26T03:55:24.232Z,99.99
2017-06-26T03:56:33.258Z,99.99
2017-06-26T03:57:42.281Z,99.99
2017-06-26T03:58:51.471Z,99.99
2017-06-26T04:00:00.412Z,99.99
2017-06-26T04:01:09.357Z,99.99
2017-06-26T04:02:18.293Z,99.99
2017-06-26T04:03:27.240Z,99.99
2017-06-26T04:04:36.432Z,99.99
2017-06-26T04:05:45.371Z,99.99
2017-06-26T04:06:54.317Z,99.99
2017-06-26T04:08:03.253Z,99.99
2017-06-26T04:09:12.192Z,99.99
2017-06-26T04:10:21.384Z,99.99
2017-06-26T04:11:30.348Z,99.99
2017-06-26T04:12:39.286Z,99.99
2017-06-26T04:13:48.224Z,99.99
2017-06-26T04:14:57.161Z,99.99
2017-06-26T04:16:06.690Z,99.99
2017-06-26T04:17:15.630Z,99.99
2017-06-26T04:18:24.567Z,99.99
2017-06-26T04:19:33.507Z,99.99
2017-06-26T04:20:42.447Z,99.99
2017-06-26T04:21:51.970Z,99.99
2017-06-26T04:23:00.909Z,99.99
2017-06-26T04:24:09.849Z,99.99
2017-06-26T04:25:18.789Z,99.99
2017-06-26T04:26:27.734Z,99.99
2017-06-26T04:27:36.974Z,99.99
2017-06-26T04:28:45.912Z,99.99
2017-06-26T04:29:54.856Z,99.99
2017-06-26T04:31:03.796Z,99.99
2017-06-26T04:32:12.744Z,99.99
2017-06-26T04:33:21.933Z,99.99
2017-06-26T04:34:30.870Z,99.99
2017-06-26T04:35:39.809Z,99.99
2017-06-26T04:36:48.749Z,99.99
2017-06-26T04:37:57.683Z,99.99
2017-06-26T04:39:06.960Z,99.99
2017-06-26T04:40:15.900Z,99.99
2017-06-26T04:41:24.835Z,99.99
2017-06-26T04:42:33.774Z,99.99
2017-06-26T04:43:42.732Z,99.99
2017-06-26T04:44:51.921Z,99.99
2017-06-26T04:46:00.860Z,99.99
2017-06-26T04:47:09.801Z,99.99
2017-06-26T04:48:18.745Z,99.99
2017-06-26T04:49:27.679Z,99.99
2017-06-26T04:50:36.867Z,99.99
2017-06-26T04:51:45.826Z,99.99
2017-06-26T04:52:54.771Z,99.99
2017-06-26T04:54:03.712Z,99.99
2017-06-26T04:55:12.650Z,99.99
2017-06-26T04:56:21.922Z,99.99
2017-06-26T04:57:30.947Z,99.99
2017-06-26T04:58:39.888Z,99.99
2017-06-26T04:59:48.826Z,99.99
2017-06-26T05:00:57.760Z,99.99
2017-06-26T05:02:06.949Z,99.99
2017-06-26T05:03:15.888Z,99.99
2017-06-26T05:04:24.823Z,99.99
2017-06-26T05:05:33.758Z,99.99
2017-06-26T05:06:42.703Z,99.99
2017-06-26T05:07:51.890Z,99.99
2017-06-26T05:09:00.827Z,99.99
2017-06-26T05:10:09.855Z,99.99
2017-06-26T05:11:18.887Z,99.99
2017-06-26T05:12:27.827Z,99.99
2017-06-26T05:13:37.014Z,99.99
2017-06-26T05:14:45.958Z,99.99
2017-06-26T05:15:54.898Z,99.99
2017-06-26T05:17:04.176Z,99.99
2017-06-26T05:18:13.115Z,99.99
2017-06-26T05:19:22.302Z,99.99
2017-06-26T05:20:31.244Z,99.99
2017-06-26T05:21:40.181Z,99.99
2017-06-26T05:22:49.125Z,99.99
2017-06-26T05:23:58.061Z,99.99
2017-06-26T05:25:07.248Z,99.99
2017-06-26T05:26:16.188Z,99.99
2017-06-26T05:27:25.123Z,99.99
2017-06-26T05:28:34.067Z,99.99
2017-06-26T05:29:43.040Z,99.99
2017-06-26T05:30:52.227Z,99.99
2017-06-26T05:32:01.169Z,99.99
2017-06-26T05:33:10.113Z,99.99
2017-06-26T05:34:19.143Z,99.99
2017-06-26T05:35:28.079Z,99.99
2017-06-26T05:36:37.275Z,99.99
2017-06-26T05:37:46.214Z,99.99
2017-06-26T05:38:55.233Z,99.99
2017-06-26T05:40:04.173Z,99.99
2017-06-26T05:41:13.437Z,99.99
2017-06-26T05:42:22.711Z,99.99
2017-06-26T05:43:31.652Z,99.99
2017-06-26T05:44:40.591Z,99.99
2017-06-26T05:45:49.616Z,99.99
2017-06-26T05:46:58.556Z,99.99
2017-06-26T05:48:07.750Z,99.99
2017-06-26T05:49:16.689Z,99.99
2017-06-26T05:50:25.710Z,99.99
2017-06-26T05:51:34.645Z,99.99
2017-06-26T05:52:43.582Z,99.99
2017-06-26T05:53:52.777Z,99.99
2017-06-26T05:55:01.718Z,99.99
2017-06-26T05:56:10.657Z,99.99
2017-06-26T05:57:19.678Z,99.99
2017-06-26T05:58:28.621Z,99.99
2017-06-26T05:59:37.808Z,99.99
2017-06-26T06:00:46.744Z,99.99
2017-06-26T06:01:55.679Z,99.99
2017-06-26T06:03:04.616Z,99.99
2017-06-26T06:04:13.552Z,99.99
2017-06-26T06:05:22.745Z,99.99
2017-06-26T06:06:31.767Z,99.99
2017-06-26T06:07:40.706Z,99.99
2017-06-26T06:08:49.649Z,99.99
2017-06-26T06:09:58.588Z,99.99
2017-06-26T06:11:07.779Z,99.99
2017-06-26T06:12:16.715Z,99.99
2017-06-26T06:13:25.732Z,99.99
2017-06-26T06:14:34.669Z,99.99
2017-06-26T06:15:43.608Z,99.99
2017-06-26T06:16:52.798Z,99.99
2017-06-26T06:18:02.069Z,99.99
2017-06-26T06:19:11.002Z,99.99
2017-06-26T06:20:19.941Z,99.99
2017-06-26T06:21:28.881Z,99.99
2017-06-26T06:22:38.128Z,99.99
2017-06-26T06:23:47.065Z,99.99
2017-06-26T06:24:56.003Z,99.99
2017-06-26T06:26:05.026Z,99.99
2017-06-26T06:27:13.968Z,99.99
2017-06-26T06:28:23.239Z,99.99
2017-06-26T06:29:32.177Z,99.99
2017-06-26T06:30:41.110Z,99.99
2017-06-26T06:31:50.131Z,99.99
2017-06-26T06:32:59.095Z,99.99
2017-06-26T06:34:08.282Z,99.99
2017-06-26T06:35:17.216Z,99.99
2017-06-26T06:36:26.156Z,99.99
2017-06-26T06:37:35.095Z,99.99
2017-06-26T06:38:44.031Z,99.99
2017-06-26T06:39:53.589Z,99.99
2017-06-26T06:41:06.573Z,99.99
2017-06-26T06:42:15.529Z,99.99
2017-06-26T06:43:24.466Z,99.99
2017-06-26T06:44:33.401Z,99.99
2017-06-26T06:45:42.592Z,99.99
2017-06-26T06:46:51.531Z,99.99
2017-06-26T06:48:00.474Z,99.99
2017-06-26T06:49:09.414Z,99.99
2017-06-26T06:50:18.874Z,99.99
2017-06-26T06:51:28.068Z,99.99
2017-06-26T06:52:37.017Z,99.99
2017-06-26T06:53:45.964Z,99.99
2017-06-26T06:54:55.099Z,99.99
2017-06-26T06:56:04.382Z,99.99
2017-06-26T06:57:13.938Z,99.99
2017-06-26T06:58:23.532Z,99.99
2017-06-26T06:59:33.116Z,99.99
2017-06-26T07:00:42.051Z,99.99
2017-06-26T07:01:51.521Z,99.99
2017-06-26T07:03:01.265Z,99.99
2017-06-26T07:04:11.319Z,99.99
2017-06-26T07:05:20.261Z,99.99
2017-06-26T07:06:29.207Z,99.99
2017-06-26T07:07:38.159Z,99.99
2017-06-26T07:08:47.371Z,99.99
2017-06-26T07:09:56.491Z,99.99
2017-06-26T07:11:05.736Z,99.99
2017-06-26T07:12:14.769Z,99.99
2017-06-26T07:13:23.739Z,99.99
2017-06-26T07:14:33.066Z,99.99
2017-06-26T07:15:42.091Z,99.99
2017-06-26T07:16:51.266Z,99.99
2017-06-26T07:18:00.291Z,99.99
2017-06-26T07:19:09.322Z,99.99
2017-06-26T07:20:18.587Z,99.99
2017-06-26T07:21:27.534Z,99.99
2017-06-26T07:22:36.801Z,99.99
2017-06-26T07:23:45.750Z,99.99
2017-06-26T07:24:54.713Z,99.99
2017-06-26T07:26:03.926Z,99.99
2017-06-26T07:27:12.891Z,99.99
2017-06-26T07:28:21.934Z,99.99
2017-06-26T07:29:30.994Z,99.99
2017-06-26T07:30:40.050Z,99.99
2017-06-26T07:31:49.263Z,99.99
2017-06-26T07:32:58.235Z,99.99
2017-06-26T07:34:07.204Z,99.99
2017-06-26T07:35:16.170Z,99.99
2017-06-26T07:36:25.149Z,99.99
2017-06-26T07:37:34.752Z,99.99
2017-06-26T07:38:43.720Z,99.99
2017-06-26T07:39:52.685Z,99.99
2017-06-26T07:41:01.989Z,99.99
2017-06-26T07:42:10.951Z,99.99
2017-06-26T07:43:20.256Z,99.99
2017-06-26T07:44:29.222Z,99.99
2017-06-26T07:45:38.281Z,99.99
2017-06-26T07:46:47.246Z,99.99
2017-06-26T07:47:56.218Z,99.99
2017-06-26T07:49:05.484Z,99.99
2017-06-26T07:50:14.543Z,99.99
2017-06-26T07:51:23.599Z,99.99
2017-06-26T07:52:32.568Z,99.99
2017-06-26T07:53:41.534Z,99.99
2017-06-26T07:54:50.751Z,99.99
2017-06-26T07:55:59.725Z,99.99
2017-06-26T07:57:08.699Z,99.99
2017-06-26T07:58:17.674Z,99.99
2017-06-26T07:59:26.641Z,99.99
2017-06-26T08:00:35.863Z,99.99
2017-06-26T08:01:44.830Z,99.99
2017-06-26T08:02:54.111Z,99.99
2017-06-26T08:04:03.088Z,99.99
2017-06-26T08:05:12.368Z,99.99
2017-06-26T08:06:21.644Z,99.99
2017-06-26T08:07:30.622Z,99.99
2017-06-26T08:08:39.595Z,99.99
2017-06-26T08:09:48.562Z,99.99
2017-06-26T08:10:57.525Z,99.99
2017-06-26T08:12:06.804Z,99.99
2017-06-26T08:13:15.777Z,99.99
2017-06-26T08:14:24.745Z,99.99
2017-06-26T08:15:33.736Z,99.99
2017-06-26T08:16:42.716Z,99.99
2017-06-26T08:17:51.932Z,99.99
2017-06-26T08:19:00.908Z,99.99
2017-06-26T08:20:09.877Z,99.99
2017-06-26T08:21:18.845Z,99.99
2017-06-26T08:22:27.900Z,99.99
2017-06-26T08:23:37.281Z,99.99
2017-06-26T08:24:46.231Z,99.99
2017-06-26T08:25:55.177Z,99.99
2017-06-26T08:27:04.413Z,99.99
2017-06-26T08:28:13.450Z,99.99
2017-06-26T08:29:22.716Z,99.99
2017-06-26T08:30:31.776Z,99.99
2017-06-26T08:31:40.753Z,99.99
2017-06-26T08:32:49.794Z,99.99
2017-06-26T08:33:58.808Z,99.99
2017-06-26T08:35:08.144Z,99.99
2017-06-26T08:36:17.152Z,99.99
2017-06-26T08:37:26.098Z,99.99
2017-06-26T08:38:35.148Z,99.99
2017-06-26T08:39:44.091Z,99.99
2017-06-26T08:40:53.371Z,99.99
2017-06-26T08:42:02.453Z,99.99
2017-06-26T08:43:11.613Z,99.99
2017-06-26T08:44:20.637Z,99.99
2017-06-26T08:45:29.649Z,99.99
2017-06-26T08:46:38.922Z,99.99
2017-06-26T08:47:48.043Z,99.99
2017-06-26T08:48:57.132Z,99.99
2017-06-26T08:50:06.097Z,99.99
2017-06-26T08:51:15.047Z,99.99
2017-06-26T08:52:24.280Z,99.99
2017-06-26T08:53:33.229Z,99.99
2017-06-26T08:54:42.283Z,99.99
2017-06-26T08:55:51.320Z,99.99
2017-06-26T08:57:00.296Z,99.99
2017-06-26T08:58:09.583Z,99.99
2017-06-26T08:59:18.528Z,99.99
2017-06-26T09:00:27.597Z,99.99
2017-06-26T09:01:36.534Z,99.99
2017-06-26T09:02:45.573Z,99.99
2017-06-26T09:03:55.008Z,99.99
2017-06-26T09:05:04.383Z,99.99
2017-06-26T09:06:13.537Z,99.99
2017-06-26T09:07:22.800Z,99.99
2017-06-26T09:08:31.825Z,99.99
2017-06-26T09:09:41.058Z,99.99
2017-06-26T09:10:50.016Z,99.99
2017-06-26T09:11:59.877Z,99.99
2017-06-26T09:13:08.880Z,99.99
2017-06-26T09:14:17.968Z,99.99
2017-06-26T09:15:27.225Z,99.99
2017-06-26T09:16:36.178Z,99.99
2017-06-26T09:17:45.125Z,99.99
2017-06-26T09:18:54.075Z,99.99
2017-06-26T09:20:03.019Z,99.99
2017-06-26T09:21:12.221Z,99.99
2017-06-26T09:22:21.169Z,99.99
2017-06-26T09:23:30.122Z,99.99
2017-06-26T09:24:39.076Z,99.99
2017-06-26T09:25:48.438Z,99.99
2017-06-26T09:26:57.785Z,99.99
2017-06-26T09:28:06.752Z,99.99
2017-06-26T09:29:15.710Z,99.99
2017-06-26T09:30:24.667Z,99.99
2017-06-26T09:31:33.941Z,99.99
2017-06-26T09:32:43.131Z,99.99
2017-06-26T09:33:52.078Z,99.99
2017-06-26T09:35:01.062Z,99.99
2017-06-26T09:36:10.007Z,99.99
2017-06-26T09:37:18.958Z,99.99
2017-06-26T09:38:28.171Z,99.99
2017-06-26T09:39:37.126Z,99.99
2017-06-26T09:40:46.079Z,99.99
2017-06-26T09:41:55.031Z,99.99
2017-06-26T09:43:03.986Z,99.99
2017-06-26T09:44:13.188Z,99.99
2017-06-26T09:45:22.136Z,99.99
2017-06-26T09:46:31.076Z,99.99
2017-06-26T09:47:40.018Z,99.99
2017-06-26T09:48:48.964Z,99.99
2017-06-26T09:49:58.163Z,99.99
2017-06-26T09:51:07.108Z,99.99
2017-06-26T09:52:16.060Z,99.99
2017-06-26T09:53:25.007Z,99.99
2017-06-26T09:54:33.958Z,99.99
2017-06-26T09:55:43.156Z,99.99
2017-06-26T09:56:52.100Z,99.99
2017-06-26T09:58:01.049Z,99.99
2017-06-26T09:59:09.996Z,99.99
2017-06-26T10:00:18.943Z,99.99
2017-06-26T10:01:28.143Z,99.99
2017-06-26T10:02:37.423Z,99.99
2017-06-26T10:03:46.368Z,99.99
2017-06-26T10:04:55.317Z,99.99
2017-06-26T10:06:04.271Z,99.99
2017-06-26T10:07:13.471Z,99.99
2017-06-26T10:08:22.417Z,99.99
2017-06-26T10:09:31.373Z,99.99
2017-06-26T10:10:40.319Z,99.99
2017-06-26T10:11:49.273Z,99.99
2017-06-26T10:12:58.466Z,99.99
2017-06-26T10:14:07.422Z,99.99
2017-06-26T10:15:16.367Z,99.99
2017-06-26T10:16:25.310Z,99.99
2017-06-26T10:17:34.253Z,99.99
2017-06-26T10:18:43.589Z,99.99
2017-06-26T10:19:54.773Z,99.99
2017-06-26T10:21:09.334Z,99.99
2017-06-26T10:22:23.545Z,99.99
2017-06-26T10:23:35.831Z,99.99
2017-06-26T10:24:48.341Z,99.99
2017-06-26T10:26:00.330Z,99.99
2017-06-26T10:27:12.129Z,99.99
2017-06-26T10:28:22.910Z,99.99
2017-06-26T10:29:32.194Z,99.99
2017-06-26T10:30:41.150Z,99.99
2017-06-26T10:31:50.101Z,99.99
2017-06-26T10:32:59.048Z,99.99
2017-06-26T10:34:08.000Z,99.99
2017-06-26T10:35:17.270Z,99.99
2017-06-26T10:36:26.265Z,99.99
2017-06-26T10:37:35.219Z,99.99
2017-06-26T10:38:44.255Z,99.99
2017-06-26T10:39:53.207Z,99.99
2017-06-26T10:41:02.582Z,99.99
2017-06-26T10:42:11.623Z,99.99
2017-06-26T10:43:20.573Z,99.99
2017-06-26T10:44:29.608Z,99.99
2017-06-26T10:45:38.649Z,99.99
2017-06-26T10:46:47.940Z,99.99
2017-06-26T10:47:57.320Z,99.99
2017-06-26T10:49:07.142Z,99.99
2017-06-26T10:50:19.859Z,99.99
2017-06-26T10:51:28.809Z,99.99
2017-06-26T10:52:38.066Z,99.99
2017-06-26T10:53:47.023Z,99.99
2017-06-26T10:54:55.974Z,99.99
2017-06-26T10:56:05.318Z,99.99
2017-06-26T10:57:15.087Z,99.99
2017-06-26T10:58:25.944Z,99.99
2017-06-26T10:59:36.566Z,99.99
2017-06-26T11:00:46.825Z,99.99
2017-06-26T11:01:59.559Z,99.99
2017-06-26T11:03:08.821Z,99.99
2017-06-26T11:04:18.936Z,99.99
2017-06-26T11:05:28.482Z,99.99
2017-06-26T11:06:38.004Z,99.99
2017-06-26T11:07:47.513Z,99.99
2017-06-26T11:08:56.903Z,99.99
2017-06-26T11:10:06.746Z,99.99
2017-06-26T11:11:16.734Z,99.99
2017-06-26T11:12:26.328Z,99.99
2017-06-26T11:13:36.247Z,99.99
2017-06-26T11:14:45.199Z,99.99
2017-06-26T11:15:54.408Z,99.99
2017-06-26T11:17:03.365Z,99.99
2017-06-26T11:18:12.315Z,99.99
2017-06-26T11:19:21.290Z,99.99
2017-06-26T11:20:30.235Z,99.99
2017-06-26T11:21:39.579Z,99.99
2017-06-26T11:22:49.124Z,99.99
2017-06-26T11:23:58.155Z,99.99
2017-06-26T11:25:07.185Z,99.99
2017-06-26T11:26:16.131Z,99.99
2017-06-26T11:27:25.335Z,99.99
2017-06-26T11:28:34.287Z,99.99
2017-06-26T11:29:43.234Z,99.99
2017-06-26T11:30:52.192Z,99.99
2017-06-26T11:32:01.142Z,99.99
2017-06-26T11:33:11.045Z,99.99
2017-06-26T11:34:21.866Z,99.99
2017-06-26T11:35:30.824Z,99.99
2017-06-26T11:36:39.777Z,99.99
2017-06-26T11:37:48.730Z,99.99
2017-06-26T11:38:57.932Z,99.99
2017-06-26T11:40:06.884Z,99.99
2017-06-26T11:41:16.162Z,99.99
2017-06-26T11:42:25.111Z,99.99
2017-06-26T11:43:34.061Z,99.99
2017-06-26T11:44:43.268Z,99.99
2017-06-26T11:45:52.286Z,99.99
2017-06-26T11:47:01.380Z,99.99
2017-06-26T11:48:10.427Z,99.99
2017-06-26T11:49:19.536Z,99.99
2017-06-26T11:50:28.919Z,99.99
2017-06-26T11:51:37.876Z,99.99
2017-06-26T11:52:46.837Z,99.99
2017-06-26T11:53:56.036Z,99.99
2017-06-26T11:55:05.825Z,99.99
2017-06-26T11:56:15.194Z,99.99
2017-06-26T11:57:24.289Z,99.99
2017-06-26T11:58:33.308Z,99.99
2017-06-26T11:59:42.638Z,99.99
2017-06-26T12:00:51.705Z,99.99
2017-06-26T12:02:01.043Z,99.99
2017-06-26T12:03:10.196Z,99.99
2017-06-26T12:04:19.189Z,99.99
2017-06-26T12:05:28.486Z,99.99
2017-06-26T12:06:37.502Z,99.99
2017-06-26T12:07:46.703Z,99.99
2017-06-26T12:08:55.732Z,99.99
2017-06-26T12:10:04.853Z,99.99
2017-06-26T12:11:13.810Z,99.99
2017-06-26T12:12:22.759Z,99.99
2017-06-26T12:13:31.962Z,99.99
2017-06-26T12:14:40.913Z,99.99
2017-06-26T12:15:49.889Z,99.99
2017-06-26T12:16:59.546Z,99.99
2017-06-26T12:18:08.489Z,96.47
2017-06-26T12:19:17.684Z,92.14
2017-06-26T12:20:26.632Z,95.98
2017-06-26T12:21:35.585Z,99.99
2017-06-26T12:22:44.541Z,99.99
2017-06-26T12:23:53.581Z,96.89
2017-06-26T12:25:02.799Z,99.99
2017-06-26T12:26:11.752Z,99.99
2017-06-26T12:27:20.769Z,99.99
2017-06-26T12:28:29.723Z,99.99
2017-06-26T12:29:38.666Z,99.99
2017-06-26T12:30:47.865Z,96.75
2017-06-26T12:31:56.804Z,99.99
2017-06-26T12:33:05.945Z,99.99
2017-06-26T12:34:14.896Z,99.99
2017-06-26T12:35:23.851Z,99.99
2017-06-26T12:36:33.102Z,99.99
2017-06-26T12:37:42.045Z,99.99
2017-06-26T12:38:51.055Z,99.99
2017-06-26T12:40:00.057Z,99.99
2017-06-26T12:41:09.029Z,99.99
2017-06-26T12:42:18.438Z,99.99
2017-06-26T12:43:27.395Z,99.99
2017-06-26T12:44:36.343Z,98.34
2017-06-26T12:45:45.293Z,99.99
2017-06-26T12:46:54.321Z,97.67
2017-06-26T12:48:03.589Z,95.94
2017-06-26T12:49:12.539Z,98.63
2017-06-26T12:50:21.492Z,95.26
2017-06-26T12:51:30.669Z,97.62
2017-06-26T12:52:39.695Z,99.99
2017-06-26T12:53:48.898Z,99.99
2017-06-26T12:54:57.848Z,99.99
2017-06-26T12:56:06.800Z,94.21
2017-06-26T12:57:15.876Z,99.99
2017-06-26T12:58:24.876Z,99.99
2017-06-26T12:59:34.239Z,96.99
2017-06-26T13:00:43.193Z,94.88
2017-06-26T13:01:52.860Z,96.42
2017-06-26T13:03:04.477Z,99.98
2017-06-26T13:04:14.544Z,99.99
2017-06-26T13:05:23.747Z,99.99
2017-06-26T13:06:32.783Z,96.37
2017-06-26T13:07:41.736Z,98.87
2017-06-26T13:08:50.790Z,99.99
2017-06-26T13:09:59.794Z,99.49
2017-06-26T13:11:09.286Z,99.21
2017-06-26T13:12:18.537Z,99.99
2017-06-26T13:13:27.977Z,91.31
2017-06-26T13:14:36.939Z,88.53
2017-06-26T13:15:45.910Z,97.57
2017-06-26T13:16:55.146Z,96.03
2017-06-26T13:18:04.311Z,93.33
2017-06-26T13:19:13.291Z,96.61
2017-06-26T13:20:22.246Z,95.74
2017-06-26T13:21:31.224Z,87.85
2017-06-26T13:22:40.455Z,92.47
2017-06-26T13:23:49.410Z,97.76
2017-06-26T13:24:58.535Z,90.73
2017-06-26T13:26:08.149Z,97.76
2017-06-26T13:27:17.941Z,95.74
2017-06-26T13:28:27.930Z,92.95
2017-06-26T13:29:38.995Z,92.95
2017-06-26T13:30:48.640Z,86.69
2017-06-26T13:31:57.905Z,81.4
2017-06-26T13:33:07.447Z,89.01
2017-06-26T13:34:17.333Z,93
2017-06-26T13:35:27.604Z,89.58
2017-06-26T13:36:36.908Z,92.43
2017-06-26T13:37:47.322Z,93.68
2017-06-26T13:38:57.677Z,86.22
2017-06-26T13:40:07.728Z,93.38
2017-06-26T13:41:16.873Z,89.54
2017-06-26T13:42:26.954Z,83.48
2017-06-26T13:43:36.767Z,92.81
2017-06-26T13:44:46.984Z,87.81
2017-06-26T13:45:57.025Z,93.96
2017-06-26T13:47:06.979Z,97.62
2017-06-26T13:48:17.162Z,96.89
2017-06-26T13:49:27.126Z,97.71
2017-06-26T13:50:37.020Z,81.7
2017-06-26T13:51:46.617Z,88.39
2017-06-26T13:52:56.855Z,95.12
2017-06-26T13:54:06.355Z,92.85
2017-06-26T13:55:16.264Z,90.35
2017-06-26T13:56:25.220Z,91.22
2017-06-26T13:57:34.655Z,96.32
2017-06-26T13:58:43.614Z,92.66
2017-06-26T13:59:52.650Z,93.15
2017-06-26T14:01:02.139Z,87.7
2017-06-26T14:02:11.873Z,88.67
2017-06-26T14:03:21.571Z,90.5
2017-06-26T14:04:30.929Z,93.29
2017-06-26T14:05:40.797Z,93
2017-06-26T14:06:50.834Z,89.92
2017-06-26T14:08:02.144Z,86.45
2017-06-26T14:09:12.937Z,87.32
2017-06-26T14:10:23.806Z,79.71
2017-06-26T14:11:33.757Z,87.9
2017-06-26T14:12:43.613Z,84.72
2017-06-26T14:13:52.870Z,83.37
2017-06-26T14:15:03.065Z,86.45
2017-06-26T14:16:12.623Z,91.46
2017-06-26T14:17:22.131Z,86.35
2017-06-26T14:18:31.441Z,77.69
2017-06-26T14:19:41.054Z,84.62
2017-06-26T14:20:51.259Z,88.38
2017-06-26T14:22:00.739Z,90.69
2017-06-26T14:23:10.368Z,85.2
2017-06-26T14:24:19.853Z,80
2017-06-26T14:25:29.408Z,81.16
2017-06-26T14:26:39.369Z,80.96
2017-06-26T14:27:48.756Z,76.82
2017-06-26T14:28:58.761Z,84.91
2017-06-26T14:30:08.172Z,83.85
2017-06-26T14:31:17.469Z,82.12
2017-06-26T14:32:27.678Z,76.44
2017-06-26T14:33:37.206Z,79
2017-06-26T14:34:46.484Z,83.04
2017-06-26T14:35:55.883Z,83.72
2017-06-26T14:37:05.087Z,88.43
2017-06-26T14:38:14.840Z,90.06
2017-06-26T14:39:24.254Z,88.24
2017-06-26T14:40:33.798Z,87.51
2017-06-26T14:41:43.174Z,87.66
2017-06-26T14:42:52.420Z,80.68
2017-06-26T14:44:02.193Z,78.36
2017-06-26T14:45:11.782Z,77.46
2017-06-26T14:46:21.057Z,78.56
2017-06-26T14:47:30.009Z,74.99
2017-06-26T14:48:39.048Z,79.03
2017-06-26T14:49:48.257Z,82.21
2017-06-26T14:50:57.397Z,83.08
2017-06-26T14:52:06.885Z,84.76